createdAt,value
2022-10-29T00:00:52.097Z,25.63
2022-10-29T00:03:19.605Z,20.98
2022-10-29T00:06:01.956Z,31.40
2022-10-29T00:08:29.755Z,28.92
2022-10-29T00:11:05.185Z,27.20
2022-10-29T00:13:31.628Z,28.83
2022-10-29T00:15:58.116Z,27.15
2022-10-29T00:18:24.531Z,24.48
2022-10-29T00:21:00.019Z,19.45
2022-10-29T00:23:26.392Z,26.05
2022-10-29T00:25:57.114Z,27.30
2022-10-29T00:28:23.544Z,29.85
2022-10-29T00:30:49.923Z,21.55
2022-10-29T00:35:57.656Z,36.25
2022-10-29T00:38:24.246Z,26.38
2022-10-29T00:40:50.754Z,39.35
2022-10-29T00:43:19.755Z,30.42
2022-10-29T00:45:52.204Z,28.88
2022-10-29T00:48:20.564Z,25.55
2022-10-29T00:50:48.287Z,28.45
2022-10-29T00:53:20.105Z,24.60
2022-10-29T00:55:46.651Z,28.40
2022-10-29T00:58:13.300Z,26.65
2022-10-29T01:00:39.837Z,24.40
2022-10-29T01:03:07.106Z,22.40
2022-10-29T01:05:35.029Z,27.77
2022-10-29T01:08:01.960Z,32.72
2022-10-29T01:10:53.728Z,29.92
2022-10-29T01:13:40.351Z,25.77
2022-10-29T01:16:21.365Z,29.75
2022-10-29T01:19:40.216Z,18.95
2022-10-29T01:22:13.848Z,30.83
2022-10-29T01:25:11.596Z,19.65
2022-10-29T01:28:01.532Z,22.05
2022-10-29T01:30:33.719Z,25.13
2022-10-29T01:33:25.318Z,24.95
2022-10-29T01:36:08.294Z,24.63
2022-10-29T01:38:41.961Z,21.48
2022-10-29T01:41:31.649Z,19.15
2022-10-29T01:44:18.212Z,33.00
2022-10-29T01:46:49.892Z,28.55
2022-10-29T01:49:22.823Z,24.27
2022-10-29T01:51:51.118Z,28.05
2022-10-29T01:54:17.473Z,20.70
2022-10-29T01:56:43.858Z,28.17
2022-10-29T01:59:23.001Z,20.05
2022-10-29T02:02:28.106Z,15.52
2022-10-29T02:05:06.162Z,30.77
2022-10-29T02:07:48.882Z,20.63
2022-10-29T02:10:28.480Z,29.30
2022-10-29T02:12:56.822Z,23.30
2022-10-29T02:15:33.767Z,27.00
2022-10-29T02:18:01.709Z,27.63
2022-10-29T02:20:28.126Z,25.35
2022-10-29T02:22:55.212Z,29.08
2022-10-29T02:25:22.338Z,21.45
2022-10-29T02:27:48.977Z,19.17
2022-10-29T02:30:15.901Z,27.77
2022-10-29T02:32:42.502Z,31.67
2022-10-29T02:35:09.543Z,27.23
2022-10-29T02:37:36.842Z,21.02
2022-10-29T02:40:04.068Z,30.52
2022-10-29T02:42:30.489Z,25.73
2022-10-29T02:44:56.927Z,20.02
2022-10-29T02:48:13.401Z,32.83
2022-10-29T02:50:39.766Z,23.48
2022-10-29T02:53:06.135Z,23.00
2022-10-29T02:55:32.493Z,29.92
2022-10-29T02:57:59.156Z,24.50
2022-10-29T03:00:25.620Z,26.15
2022-10-29T03:02:52.729Z,29.20
2022-10-29T03:05:19.320Z,23.08
2022-10-29T03:07:45.725Z,29.70
2022-10-29T03:10:12.133Z,31.38
2022-10-29T03:12:38.489Z,35.60
2022-10-29T03:15:05.314Z,28.90
2022-10-29T03:17:31.713Z,25.58
2022-10-29T03:19:58.078Z,19.50
2022-10-29T03:22:24.455Z,27.25
2022-10-29T03:24:50.817Z,24.73
2022-10-29T03:27:17.192Z,23.20
2022-10-29T03:29:43.545Z,22.45
2022-10-29T03:32:09.903Z,27.48
2022-10-29T03:34:36.269Z,21.98
2022-10-29T03:37:02.744Z,22.02
2022-10-29T03:39:29.120Z,19.50
2022-10-29T03:41:55.514Z,13.10
2022-10-29T03:44:22.123Z,21.60
2022-10-29T03:46:48.486Z,24.23
2022-10-29T03:49:14.898Z,24.90
2022-10-29T03:51:41.331Z,25.98
2022-10-29T03:54:07.714Z,20.75
2022-10-29T03:56:34.081Z,17.40
2022-10-29T03:59:00.557Z,24.83
2022-10-29T04:01:27.108Z,15.48
2022-10-29T04:03:53.572Z,14.60
2022-10-29T04:06:19.916Z,34.90
2022-10-29T04:08:46.326Z,28.23
2022-10-29T04:11:13.743Z,25.38
2022-10-29T04:13:40.479Z,19.27
2022-10-29T04:16:07.390Z,21.17
2022-10-29T04:18:34.026Z,16.33
2022-10-29T04:29:22.704Z,24.60
2022-10-29T04:31:49.281Z,21.33
2022-10-29T04:34:15.658Z,26.85
2022-10-29T04:36:42.068Z,22.13
2022-10-29T04:39:08.464Z,22.75
2022-10-29T04:41:34.953Z,22.77
2022-10-29T04:44:02.248Z,25.60
2022-10-29T04:46:28.708Z,19.35
2022-10-29T04:48:55.163Z,30.60
2022-10-29T04:51:24.843Z,26.35
2022-10-29T04:53:51.254Z,24.80
2022-10-29T04:56:18.292Z,24.15
2022-10-29T04:58:44.983Z,29.25
2022-10-29T05:01:11.615Z,26.58
2022-10-29T05:03:38.176Z,21.17
2022-10-29T05:06:05.565Z,17.52
2022-10-29T05:08:32.299Z,18.48
2022-10-29T05:11:02.859Z,22.95
2022-10-29T05:13:29.299Z,22.88
2022-10-29T05:15:55.721Z,22.70
2022-10-29T05:18:22.401Z,23.17
2022-10-29T05:20:48.818Z,22.35
2022-10-29T05:23:15.227Z,24.13
2022-10-29T05:25:42.005Z,24.77
2022-10-29T05:28:13.236Z,21.08
2022-10-29T05:33:10.335Z,28.65
2022-10-29T05:35:37.242Z,24.67
2022-10-29T05:38:04.795Z,29.67
2022-10-29T05:40:31.271Z,26.45
2022-10-29T05:42:58.039Z,23.10
2022-10-29T05:45:24.677Z,24.60
2022-10-29T05:48:02.874Z,23.95
2022-10-29T05:50:30.379Z,34.45
2022-10-29T05:52:58.272Z,28.55
2022-10-29T05:55:26.198Z,26.50
2022-10-29T05:58:00.031Z,26.60
2022-10-29T06:00:29.172Z,24.38
2022-10-29T06:02:56.545Z,36.97
2022-10-29T06:05:23.960Z,19.88
2022-10-29T06:08:00.923Z,22.58
2022-10-29T06:10:29.321Z,24.50
2022-10-29T06:12:55.756Z,27.85
2022-10-29T06:15:23.087Z,29.73
2022-10-29T06:17:49.777Z,40.00
2022-10-29T06:20:19.692Z,28.35
2022-10-29T06:22:46.167Z,21.70
2022-10-29T06:25:12.586Z,25.35
2022-10-29T06:27:38.949Z,22.73
2022-10-29T06:30:06.295Z,34.92
2022-10-29T06:32:32.844Z,35.75
2022-10-29T06:34:59.280Z,33.90
2022-10-29T06:37:25.825Z,28.80
2022-10-29T06:39:52.197Z,27.77
2022-10-29T06:42:18.656Z,30.75
2022-10-29T06:44:45.048Z,21.83
2022-10-29T06:47:11.409Z,18.83
2022-10-29T06:49:37.816Z,22.30
2022-10-29T06:52:04.402Z,17.75
2022-10-29T06:54:30.802Z,28.90
2022-10-29T06:56:57.243Z,21.55
2022-10-29T06:59:24.443Z,24.95
2022-10-29T07:01:51.059Z,22.77
2022-10-29T07:04:18.439Z,27.70
2022-10-29T07:06:45.041Z,24.38
2022-10-29T07:09:11.502Z,32.88
2022-10-29T07:11:37.900Z,24.05
2022-10-29T07:14:06.040Z,29.40
2022-10-29T07:16:32.516Z,33.05
2022-10-29T07:18:59.006Z,35.45
2022-10-29T07:21:25.414Z,27.38
2022-10-29T07:23:52.181Z,22.05
2022-10-29T07:26:18.862Z,20.58
2022-10-29T07:28:45.274Z,17.40
2022-10-29T07:31:11.656Z,13.82
2022-10-29T07:33:38.021Z,16.90
2022-10-29T07:36:04.742Z,15.57
2022-10-29T07:38:31.112Z,15.05
2022-10-29T07:40:57.533Z,19.40
2022-10-29T07:43:24.059Z,16.52
2022-10-29T07:45:51.230Z,21.65
2022-10-29T07:48:19.750Z,25.85
2022-10-29T07:50:47.132Z,29.08
2022-10-29T07:53:13.985Z,27.52
2022-10-29T07:55:40.463Z,23.30
2022-10-29T07:58:12.709Z,28.10
2022-10-29T08:00:40.781Z,27.65
2022-10-29T08:03:07.527Z,19.33
2022-10-29T08:05:34.534Z,22.05
2022-10-29T08:08:01.138Z,18.92
2022-10-29T08:10:28.431Z,22.98
2022-10-29T08:12:57.825Z,20.77
2022-10-29T08:15:25.582Z,23.45
2022-10-29T08:17:52.646Z,25.38
2022-10-29T08:20:20.742Z,20.70
2022-10-29T08:22:47.358Z,21.08
2022-10-29T08:25:14.268Z,31.92
2022-10-29T08:27:40.804Z,21.70
2022-10-29T08:30:09.356Z,16.23
2022-10-29T08:32:36.007Z,21.70
2022-10-29T08:35:03.312Z,29.13
2022-10-29T08:37:29.780Z,24.88
2022-10-29T08:39:56.141Z,24.65
2022-10-29T08:42:56.205Z,25.60
2022-10-29T08:45:36.698Z,23.38
2022-10-29T08:48:21.124Z,30.67
2022-10-29T08:50:52.704Z,18.77
2022-10-29T08:53:23.893Z,23.30
2022-10-29T08:55:51.535Z,25.27
2022-10-29T08:58:33.238Z,25.55
2022-10-29T09:00:59.771Z,25.92
2022-10-29T09:03:30.119Z,27.30
2022-10-29T09:06:08.672Z,26.10
2022-10-29T09:08:54.468Z,23.95
2022-10-29T09:11:26.582Z,20.02
2022-10-29T09:13:55.961Z,26.63
2022-10-29T09:16:51.265Z,21.70
2022-10-29T09:19:41.013Z,21.65
2022-10-29T09:22:17.180Z,26.73
2022-10-29T09:24:55.353Z,25.48
2022-10-29T09:27:48.164Z,22.20
2022-10-29T09:30:18.665Z,26.42
2022-10-29T09:33:03.034Z,25.00
2022-10-29T09:35:41.954Z,27.95
2022-10-29T09:38:17.286Z,20.75
2022-10-29T09:40:43.971Z,17.10
2022-10-29T09:43:28.449Z,21.48
2022-10-29T09:46:04.721Z,18.60
2022-10-29T09:48:41.419Z,28.17
2022-10-29T09:51:26.051Z,18.77
2022-10-29T09:53:52.994Z,28.60
2022-10-29T09:56:19.541Z,21.02
2022-10-29T09:58:54.856Z,19.83
2022-10-29T10:01:21.446Z,22.02
2022-10-29T10:03:54.863Z,22.55
2022-10-29T10:06:21.393Z,17.75
2022-10-29T10:08:58.477Z,24.33
2022-10-29T10:11:27.218Z,20.77
2022-10-29T10:13:58.650Z,22.33
2022-10-29T10:16:27.723Z,29.05
2022-10-29T10:18:54.347Z,24.77
2022-10-29T10:21:26.601Z,24.35
2022-10-29T10:23:54.717Z,26.02
2022-10-29T10:26:41.415Z,22.02
2022-10-29T10:29:15.420Z,24.30
2022-10-29T10:31:44.169Z,25.50
2022-10-29T10:34:22.378Z,22.23
2022-10-29T10:36:54.645Z,21.70
2022-10-29T10:39:36.359Z,26.88
2022-10-29T10:42:06.833Z,23.92
2022-10-29T10:44:34.340Z,20.85
2022-10-29T10:47:06.827Z,29.75
2022-10-29T10:49:38.708Z,32.42
2022-10-29T10:52:26.484Z,24.52
2022-10-29T10:55:02.942Z,26.67
2022-10-29T10:57:34.180Z,25.42
2022-10-29T11:00:16.010Z,22.98
2022-10-29T11:02:56.300Z,22.40
2022-10-29T11:05:33.965Z,23.80
2022-10-29T11:08:07.076Z,26.48
2022-10-29T11:10:43.941Z,20.38
2022-10-29T11:13:16.219Z,24.23
2022-10-29T11:15:49.931Z,20.98
2022-10-29T11:18:25.423Z,23.35
2022-10-29T11:21:19.238Z,19.52
2022-10-29T11:24:03.120Z,20.15
2022-10-29T11:26:41.253Z,19.80
2022-10-29T11:29:32.147Z,24.65
2022-10-29T11:32:04.578Z,24.20
2022-10-29T11:34:43.186Z,19.67
2022-10-29T11:37:09.577Z,19.30
2022-10-29T11:39:52.039Z,20.85
2022-10-29T11:42:18.408Z,21.27
2022-10-29T11:44:44.942Z,23.50
2022-10-29T11:47:26.262Z,24.50
2022-10-29T11:50:18.674Z,19.48
2022-10-29T11:52:48.017Z,24.55
2022-10-29T11:55:36.379Z,23.25
2022-10-29T11:58:13.755Z,20.25
2022-10-29T12:01:08.648Z,23.55
2022-10-29T12:04:00.256Z,24.92
2022-10-29T12:06:40.449Z,20.38
2022-10-29T12:09:28.773Z,29.73
2022-10-29T12:12:14.344Z,22.77
2022-10-29T12:15:04.660Z,23.27
2022-10-29T12:17:56.694Z,29.50
2022-10-29T12:20:31.451Z,20.85
2022-10-29T12:23:25.215Z,18.25
2022-10-29T12:26:59.428Z,20.20
2022-10-29T12:29:50.190Z,21.13
2022-10-29T12:32:54.145Z,20.35
2022-10-29T12:35:23.786Z,19.23
2022-10-29T12:38:08.031Z,20.08
2022-10-29T12:40:38.350Z,23.40
2022-10-29T12:43:11.234Z,27.02
2022-10-29T12:46:18.950Z,26.48
2022-10-29T12:49:07.520Z,21.95
2022-10-29T12:51:51.399Z,26.05
2022-10-29T12:54:20.905Z,24.45
2022-10-29T12:56:49.489Z,23.35
2022-10-29T12:59:23.167Z,19.88
2022-10-29T13:02:10.439Z,18.23
2022-10-29T13:04:36.936Z,20.20
2022-10-29T13:07:05.694Z,28.05
2022-10-29T13:09:36.805Z,25.50
2022-10-29T13:14:29.501Z,21.13
2022-10-29T13:16:56.895Z,21.52
2022-10-29T13:19:35.696Z,19.50
2022-10-29T13:22:51.103Z,21.42
2022-10-29T13:25:42.240Z,22.73
2022-10-29T13:28:08.576Z,23.27
2022-10-29T13:30:40.116Z,18.38
2022-10-29T13:33:27.567Z,24.75
2022-10-29T13:36:01.853Z,23.70
2022-10-29T13:39:07.527Z,18.73
2022-10-29T13:41:41.983Z,27.95
2022-10-29T13:44:16.172Z,20.58
2022-10-29T13:46:47.561Z,21.95
2022-10-29T13:49:21.740Z,16.60
2022-10-29T13:51:53.440Z,22.95
2022-10-29T13:54:45.967Z,20.40
2022-10-29T13:57:12.294Z,15.20
2022-10-29T13:59:42.511Z,25.73
2022-10-29T14:02:20.898Z,22.77
2022-10-29T14:04:52.290Z,22.60
2022-10-29T14:07:26.061Z,20.83
2022-10-29T14:09:57.251Z,22.90
2022-10-29T14:14:55.577Z,21.65
2022-10-29T14:17:21.980Z,23.25
2022-10-29T14:19:51.358Z,23.05
2022-10-29T14:22:33.202Z,26.38
2022-10-29T14:25:02.459Z,47.83
2022-10-29T14:27:29.556Z,80.88
2022-10-29T14:30:18.733Z,153.75
2022-10-29T14:32:47.006Z,154.50
2022-10-29T14:35:16.759Z,104.25
2022-10-29T14:37:46.553Z,59.50
2022-10-29T14:40:23.072Z,43.28
2022-10-29T14:42:55.522Z,30.30
2022-10-29T14:45:31.897Z,29.73
2022-10-29T14:48:03.102Z,25.50
2022-10-29T14:50:31.085Z,18.70
2022-10-29T14:53:02.317Z,21.92
2022-10-29T14:58:12.252Z,28.70
2022-10-29T15:00:50.675Z,21.70
2022-10-29T15:03:21.917Z,17.63
2022-10-29T15:05:48.385Z,22.30
2022-10-29T15:08:19.255Z,23.40
2022-10-29T15:10:54.662Z,23.75
2022-10-29T15:13:27.121Z,20.38
2022-10-29T15:16:15.869Z,30.48
2022-10-29T15:18:51.576Z,23.75
2022-10-29T15:21:26.960Z,26.40
2022-10-29T15:23:58.716Z,23.40
2022-10-29T15:26:25.160Z,23.17
2022-10-29T15:28:54.476Z,20.60
2022-10-29T15:31:34.737Z,18.67
2022-10-29T15:34:08.807Z,27.80
2022-10-29T15:36:49.993Z,21.90
2022-10-29T15:41:50.495Z,20.60
2022-10-29T15:44:36.039Z,23.25
2022-10-29T15:47:18.820Z,25.63
2022-10-29T15:49:45.176Z,23.13
2022-10-29T15:52:16.816Z,25.05
2022-10-29T15:54:43.545Z,26.77
2022-10-29T15:57:13.062Z,28.55
2022-10-29T15:59:40.114Z,33.53
2022-10-29T16:02:14.554Z,27.58
2022-10-29T16:04:41.140Z,25.13
2022-10-29T16:07:12.794Z,27.65
2022-10-29T16:09:44.970Z,32.17
2022-10-29T16:12:11.388Z,29.73
2022-10-29T16:14:37.764Z,29.60
2022-10-29T16:17:10.274Z,27.95
2022-10-29T16:19:36.756Z,26.13
2022-10-29T16:22:03.125Z,20.77
2022-10-29T16:24:29.617Z,23.15
2022-10-29T16:26:56.157Z,28.65
2022-10-29T16:29:22.702Z,22.83
2022-10-29T16:31:49.080Z,24.67
2022-10-29T16:34:18.202Z,26.63
2022-10-29T16:36:47.203Z,30.90
2022-10-29T16:39:13.614Z,32.13
2022-10-29T16:41:40.006Z,28.50
2022-10-29T16:44:06.387Z,25.98
2022-10-29T16:46:32.745Z,28.70
2022-10-29T16:48:59.112Z,31.42
2022-10-29T16:51:25.478Z,31.05
2022-10-29T16:53:52.884Z,26.25
2022-10-29T16:56:19.448Z,25.10
2022-10-29T16:58:45.813Z,27.70
2022-10-29T17:01:12.572Z,24.38
2022-10-29T17:03:39.142Z,29.88
2022-10-29T17:06:08.127Z,26.45
2022-10-29T17:08:35.641Z,24.10
2022-10-29T17:11:04.178Z,24.08
2022-10-29T17:13:30.596Z,27.27
2022-10-29T17:15:57.280Z,22.08
2022-10-29T17:18:24.648Z,22.25
2022-10-29T17:20:56.048Z,24.02
2022-10-29T17:23:22.404Z,30.35
2022-10-29T17:25:54.880Z,31.75
2022-10-29T17:28:25.830Z,25.50
2022-10-29T17:30:52.885Z,21.13
2022-10-29T17:33:19.624Z,35.30
2022-10-29T17:35:46.201Z,27.73
2022-10-29T17:38:12.668Z,29.15
2022-10-29T17:40:39.219Z,23.70
2022-10-29T17:43:05.774Z,30.42
2022-10-29T17:45:32.203Z,43.80
2022-10-29T17:47:59.247Z,41.05
2022-10-29T17:50:26.580Z,35.20
2022-10-29T17:52:53.936Z,20.90
2022-10-29T17:55:20.580Z,29.10
2022-10-29T17:57:47.045Z,27.60
2022-10-29T18:00:13.945Z,28.42
2022-10-29T18:02:40.467Z,33.05
2022-10-29T18:05:07.588Z,22.88
2022-10-29T18:07:34.298Z,25.48
2022-10-29T18:10:00.716Z,31.98
2022-10-29T18:12:27.121Z,27.42
2022-10-29T18:14:53.522Z,22.55
2022-10-29T18:17:19.932Z,23.20
2022-10-29T18:19:46.370Z,31.90
2022-10-29T18:22:12.957Z,25.77
2022-10-29T18:24:39.345Z,20.25
2022-10-29T18:27:05.779Z,19.00
2022-10-29T18:29:32.139Z,29.67
2022-10-29T18:31:58.571Z,30.38
2022-10-29T18:34:25.035Z,22.33
2022-10-29T18:36:51.422Z,23.30
2022-10-29T18:39:17.833Z,23.17
2022-10-29T18:41:44.233Z,27.10
2022-10-29T18:44:10.620Z,22.38
2022-10-29T18:46:37.057Z,23.10
2022-10-29T18:49:03.527Z,28.25
2022-10-29T18:51:32.124Z,18.38
2022-10-29T18:53:59.385Z,23.27
2022-10-29T18:56:27.249Z,22.92
2022-10-29T18:58:55.554Z,27.73
2022-10-29T19:01:27.892Z,26.02
2022-10-29T19:03:56.527Z,29.92
2022-10-29T19:06:25.872Z,27.65
2022-10-29T19:08:52.862Z,27.25
2022-10-29T19:11:22.687Z,31.45
2022-10-29T19:13:58.368Z,24.40
2022-10-29T19:16:25.681Z,29.60
2022-10-29T19:18:56.438Z,44.60
2022-10-29T19:21:22.859Z,32.55
2022-10-29T19:23:53.985Z,43.13
2022-10-29T19:26:20.404Z,34.33
2022-10-29T19:28:47.332Z,31.90
2022-10-29T19:31:26.323Z,33.10
2022-10-29T19:33:55.791Z,30.88
2022-10-29T19:36:23.513Z,30.17
2022-10-29T19:38:50.055Z,27.88
2022-10-29T19:41:17.352Z,21.88
2022-10-29T19:43:44.121Z,16.20
2022-10-29T19:46:16.597Z,25.48
2022-10-29T19:48:43.361Z,31.10
2022-10-29T19:51:10.682Z,21.92
2022-10-29T19:53:38.697Z,30.80
2022-10-29T19:56:06.364Z,22.98
2022-10-29T19:58:33.383Z,29.90
2022-10-29T20:01:05.979Z,27.52
2022-10-29T20:03:32.869Z,25.58
2022-10-29T20:05:59.930Z,28.00
2022-10-29T20:08:27.324Z,26.95
2022-10-29T20:10:58.605Z,22.45
2022-10-29T20:13:25.910Z,21.05
2022-10-29T20:15:53.404Z,21.60
2022-10-29T20:18:20.055Z,22.05
2022-10-29T20:20:52.543Z,21.73
2022-10-29T20:23:18.998Z,21.45
2022-10-29T20:25:45.358Z,26.92
2022-10-29T20:28:11.869Z,29.15
2022-10-29T20:30:38.216Z,22.42
2022-10-29T20:33:05.049Z,28.80
2022-10-29T20:35:31.489Z,27.33
2022-10-29T20:37:58.129Z,37.28
2022-10-29T20:40:24.792Z,31.33
2022-10-29T20:42:51.337Z,25.10
2022-10-29T20:45:18.229Z,25.23
2022-10-29T20:47:44.586Z,23.65
2022-10-29T20:50:10.977Z,18.63
2022-10-29T20:52:37.522Z,21.67
2022-10-29T20:55:04.314Z,30.17
2022-10-29T20:57:31.432Z,25.77
2022-10-29T20:59:58.526Z,32.35
2022-10-29T21:02:25.477Z,24.58
2022-10-29T21:04:52.013Z,30.77
2022-10-29T21:07:18.751Z,24.17
2022-10-29T21:09:45.169Z,28.80
2022-10-29T21:12:11.551Z,33.13
2022-10-29T21:14:37.935Z,28.67
2022-10-29T21:17:04.337Z,38.25
2022-10-29T21:19:30.735Z,28.45
2022-10-29T21:21:57.133Z,37.70
2022-10-29T21:24:23.567Z,29.52
2022-10-29T21:26:49.942Z,38.25
2022-10-29T21:29:16.578Z,27.98
2022-10-29T21:31:42.929Z,38.00
2022-10-29T21:34:09.294Z,31.58
2022-10-29T21:36:35.657Z,28.80
2022-10-29T21:39:02.042Z,28.63
2022-10-29T21:41:28.416Z,27.25
2022-10-29T21:43:54.868Z,27.60
2022-10-29T21:46:21.238Z,24.63
2022-10-29T21:48:47.605Z,25.02
2022-10-29T21:51:16.208Z,22.33
2022-10-29T21:53:42.609Z,19.73
2022-10-29T21:56:11.805Z,24.05
2022-10-29T21:58:38.167Z,20.50
2022-10-29T22:01:16.302Z,28.10
2022-10-29T22:03:44.263Z,25.70
2022-10-29T22:06:16.542Z,26.83
2022-10-29T22:08:43.804Z,27.63
2022-10-29T22:11:11.273Z,23.35
2022-10-29T22:13:37.680Z,20.98
2022-10-29T22:16:05.672Z,39.95
2022-10-29T22:18:32.788Z,25.15
2022-10-29T22:21:06.378Z,24.45
2022-10-29T22:23:33.071Z,21.30
2022-10-29T22:25:59.486Z,21.58
2022-10-29T22:28:25.897Z,16.48
2022-10-29T22:31:03.040Z,21.15
2022-10-29T22:33:30.005Z,28.90
2022-10-29T22:36:02.811Z,26.08
2022-10-29T22:38:29.187Z,26.80
2022-10-29T22:40:55.546Z,24.67
2022-10-29T22:43:21.910Z,23.52
2022-10-29T22:45:48.250Z,22.80
2022-10-29T22:48:14.634Z,28.95
2022-10-29T22:50:41.029Z,24.52
2022-10-29T22:53:07.411Z,24.13
2022-10-29T22:55:33.816Z,27.35
2022-10-29T22:58:00.180Z,28.98
2022-10-29T23:00:26.583Z,34.70
2022-10-29T23:02:52.927Z,29.75
2022-10-29T23:05:19.299Z,28.13
2022-10-29T23:07:45.694Z,30.25
2022-10-29T23:10:12.120Z,26.98
2022-10-29T23:12:38.609Z,28.05
2022-10-29T23:15:05.576Z,25.98
2022-10-29T23:17:32.018Z,25.70
2022-10-29T23:19:58.721Z,21.15
2022-10-29T23:22:27.559Z,20.92
2022-10-29T23:24:54.363Z,23.73
2022-10-29T23:27:20.746Z,25.27
2022-10-29T23:29:47.198Z,19.85
2022-10-29T23:32:13.583Z,23.27
2022-10-29T23:34:39.977Z,32.55
2022-10-29T23:37:08.912Z,38.30
2022-10-29T23:39:36.543Z,35.70
2022-10-29T23:42:03.019Z,25.63
2022-10-29T23:44:29.384Z,26.58
2022-10-29T23:46:55.774Z,25.55
2022-10-29T23:49:22.137Z,22.35
2022-10-29T23:51:48.621Z,20.48
2022-10-29T23:54:15.020Z,30.52
2022-10-29T23:56:41.417Z,32.80
2022-10-29T23:59:07.824Z,33.83
